Main page
METAR-TAF:

METAR-TAF

Airports :

Sabadell, Spain

Sabadell Airport

latitude: 41-31N, longitude: 002-06E, elevation: 250 m

Current weather observation

The report was made 35 minutes ago, at 01:30 UTC
Wind 3 kt from the West
Temperature 15°C
Humidity 72%
Pressure 1018 hPa
Visibility 10 km or more
no clouds below 1500 m and no cumulonimbus

METAR: LELL 290130Z AUTO 28003KT CAVOK 15/10 Q1018

Time: 04:05 (02:05 UTC)

Forecast

The report was made 11 hours and 9 minutes ago, at 14:56 UTC
Forecast valid from 28 at 15 UTC to 29 at 15 UTC
Wind 10 kt from the East/Southeast
Visibility 10 km or more
Few clouds at a height of 3000 ft
Becoming
from 28 at 18 UTC to 28 at 21 UTC
Wind 4 kt from variable directions
Becoming
from 29 at 09 UTC to 29 at 12 UTC
Wind 10 kt from the Southeast

TAF: LELL 281456Z 2815/2915 12010KT 9999 FEW030 TX30/2913Z TN16/2906Z BECMG 2818/2821 VRB04KT BECMG 2909/2912 13010KT

Weather observations and forecasts of more than 4000 airports (METAR and TAF reports).

The available stations are represented by yellow and red dots on the map.

Hover mouse over dot to see the name of the station.

Then click to see weather observations and forecasts.

To change the map : click on the green buttons with a black cross to zoom in, on the green button with a dash to zoom out, or on the green arrows for adjacent maps.


METAR-TAF: